Tofino Long Beach Airport Tofino CA
ICAO: CYAZ
IATA: YAZ
Category: Medium
Scheduled Services: Yes

Elevation: 80 ft
TransAlt. 9000 ft.

Airport Communications:
VANCOUVER CNTR:132.9
PACIFIC RDO:123.25

CYAZ Zoom In..

If you have problems with the map follow the link
https://www.worldairports.se/pages/airport.php?
ICAO=CYAZ

Runways:

(A) RW 07 length 4999 ft width 150 ft
---- / hdg 71

(B) RW 11 length 4997 ft width 100 ft
---- / hdg 107

(C) RW 16 length 5000 ft width 100 ft
---- / hdg 156

(D) RW 25 length 4999 ft width 150 ft
---- / hdg 251

(E) RW 29 length 4997 ft width 100 ft
---- / hdg 287

(F) RW 34 length 5000 ft width 100 ft
---- / hdg 336

Location; CYAZ
Day. 17 / Time. 01.00 Zulu
* Altimeter: 29.54
* Temperature: 10° c. 50°f.
* Wind from: VRB° Speed 02 kn.
Dewpoint: 10° c.
Visibility: 1 m.
Clouds: Overcast 600 ft.
Conditions: Mist.Conditions: Rain.

CYAZ 170100Z VRB02KT 1 1/2SM BR OVC006 10/10 A2954 RMK ST8 INTMT VRY LGT RA LAST STFD OBS/NEXT 171500UTC SLP004


Wind From VRB°
Speed 02 kn.

 
 
jpsmedia.com for Web Design worldairports.se 2018   terms of use